sensor_id;sensor_type;location;lat;lon;timestamp;P1;durP1;ratioP1;P2;durP2;ratioP2
5959;SDS011;3006;50.956;7.002;2023-04-29T00:01:16;12.80;;;10.10;;
5959;SDS011;3006;50.956;7.002;2023-04-29T00:03:44;13.90;;;10.90;;
5959;SDS011;3006;50.956;7.002;2023-04-29T00:06:14;15.80;;;10.47;;
5959;SDS011;3006;50.956;7.002;2023-04-29T00:08:43;17.43;;;11.07;;
5959;SDS011;3006;50.956;7.002;2023-04-29T00:11:11;12.00;;;9.27;;
5959;SDS011;3006;50.956;7.002;2023-04-29T00:13:39;12.60;;;9.57;;
5959;SDS011;3006;50.956;7.002;2023-04-29T00:16:07;12.67;;;10.33;;
5959;SDS011;3006;50.956;7.002;2023-04-29T00:18:36;12.50;;;10.30;;
5959;SDS011;3006;50.956;7.002;2023-04-29T00:21:04;14.63;;;10.20;;
5959;SDS011;3006;50.956;7.002;2023-04-29T00:23:33;17.60;;;9.83;;
5959;SDS011;3006;50.956;7.002;2023-04-29T00:26:01;12.93;;;10.70;;
5959;SDS011;3006;50.956;7.002;2023-04-29T00:28:29;13.47;;;10.47;;
5959;SDS011;3006;50.956;7.002;2023-04-29T00:30:57;13.67;;;10.37;;
5959;SDS011;3006;50.956;7.002;2023-04-29T00:33:25;12.97;;;9.53;;
5959;SDS011;3006;50.956;7.002;2023-04-29T00:35:54;15.60;;;10.77;;
5959;SDS011;3006;50.956;7.002;2023-04-29T00:38:23;13.47;;;10.63;;
5959;SDS011;3006;50.956;7.002;2023-04-29T00:40:53;15.70;;;10.60;;
5959;SDS011;3006;50.956;7.002;2023-04-29T00:43:21;15.43;;;11.13;;
5959;SDS011;3006;50.956;7.002;2023-04-29T00:45:49;14.60;;;11.63;;
5959;SDS011;3006;50.956;7.002;2023-04-29T00:48:18;15.50;;;12.10;;
5959;SDS011;3006;50.956;7.002;2023-04-29T00:50:46;15.43;;;11.20;;
5959;SDS011;3006;50.956;7.002;2023-04-29T00:53:14;15.07;;;11.13;;
5959;SDS011;3006;50.956;7.002;2023-04-29T00:55:42;14.97;;;10.40;;
5959;SDS011;3006;50.956;7.002;2023-04-29T00:58:14;15.43;;;10.10;;
5959;SDS011;3006;50.956;7.002;2023-04-29T01:00:42;14.37;;;9.40;;
5959;SDS011;3006;50.956;7.002;2023-04-29T01:03:12;12.73;;;9.37;;
5959;SDS011;3006;50.956;7.002;2023-04-29T01:05:41;11.47;;;8.47;;
5959;SDS011;3006;50.956;7.002;2023-04-29T01:08:14;11.53;;;8.70;;
5959;SDS011;3006;50.956;7.002;2023-04-29T01:10:56;11.23;;;9.50;;
5959;SDS011;3006;50.956;7.002;2023-04-29T01:13:36;17.10;;;10.53;;
5959;SDS011;3006;50.956;7.002;2023-04-29T01:16:10;17.23;;;11.10;;
5959;SDS011;3006;50.956;7.002;2023-04-29T01:18:45;17.13;;;12.00;;
5959;SDS011;3006;50.956;7.002;2023-04-29T01:21:24;16.93;;;12.60;;
5959;SDS011;3006;50.956;7.002;2023-04-29T01:23:54;18.03;;;11.63;;
5959;SDS011;3006;50.956;7.002;2023-04-29T01:26:26;20.63;;;13.83;;
5959;SDS011;3006;50.956;7.002;2023-04-29T01:29:09;16.67;;;12.87;;
5959;SDS011;3006;50.956;7.002;2023-04-29T01:31:57;25.43;;;16.20;;
5959;SDS011;3006;50.956;7.002;2023-04-29T01:34:33;27.03;;;18.07;;
5959;SDS011;3006;50.956;7.002;2023-04-29T01:37:09;26.43;;;17.83;;
5959;SDS011;3006;50.956;7.002;2023-04-29T01:39:52;27.40;;;19.50;;
5959;SDS011;3006;50.956;7.002;2023-04-29T01:42:28;31.47;;;20.10;;
5959;SDS011;3006;50.956;7.002;2023-04-29T01:45:07;31.20;;;19.77;;
5959;SDS011;3006;50.956;7.002;2023-04-29T01:47:38;35.40;;;21.67;;
5959;SDS011;3006;50.956;7.002;2023-04-29T01:50:08;32.77;;;22.90;;
5959;SDS011;3006;50.956;7.002;2023-04-29T01:52:37;34.10;;;22.53;;
5959;SDS011;3006;50.956;7.002;2023-04-29T01:55:07;36.03;;;23.50;;
5959;SDS011;3006;50.956;7.002;2023-04-29T01:57:44;35.10;;;24.00;;
5959;SDS011;3006;50.956;7.002;2023-04-29T02:00:32;35.80;;;24.43;;
5959;SDS011;3006;50.956;7.002;2023-04-29T02:03:01;36.87;;;25.67;;
5959;SDS011;3006;50.956;7.002;2023-04-29T02:05:37;36.53;;;24.47;;
5959;SDS011;3006;50.956;7.002;2023-04-29T02:08:05;42.40;;;26.60;;
5959;SDS011;3006;50.956;7.002;2023-04-29T02:10:40;42.43;;;28.10;;
5959;SDS011;3006;50.956;7.002;2023-04-29T02:13:26;39.57;;;27.43;;
5959;SDS011;3006;50.956;7.002;2023-04-29T02:15:55;45.27;;;28.60;;
5959;SDS011;3006;50.956;7.002;2023-04-29T02:18:23;44.87;;;29.90;;
5959;SDS011;3006;50.956;7.002;2023-04-29T02:20:58;50.80;;;32.90;;
5959;SDS011;3006;50.956;7.002;2023-04-29T02:23:27;54.97;;;32.50;;
5959;SDS011;3006;50.956;7.002;2023-04-29T02:25:56;48.77;;;30.20;;
5959;SDS011;3006;50.956;7.002;2023-04-29T02:28:24;54.10;;;32.30;;
5959;SDS011;3006;50.956;7.002;2023-04-29T02:30:52;52.27;;;32.90;;
5959;SDS011;3006;50.956;7.002;2023-04-29T02:33:20;54.40;;;35.07;;
5959;SDS011;3006;50.956;7.002;2023-04-29T02:35:48;56.33;;;34.37;;
5959;SDS011;3006;50.956;7.002;2023-04-29T02:38:16;65.00;;;36.67;;
5959;SDS011;3006;50.956;7.002;2023-04-29T02:40:45;59.67;;;36.50;;
5959;SDS011;3006;50.956;7.002;2023-04-29T02:43:14;57.40;;;36.03;;
5959;SDS011;3006;50.956;7.002;2023-04-29T02:45:43;58.37;;;34.17;;
5959;SDS011;3006;50.956;7.002;2023-04-29T02:48:12;61.97;;;35.60;;
5959;SDS011;3006;50.956;7.002;2023-04-29T02:50:40;55.70;;;33.93;;
5959;SDS011;3006;50.956;7.002;2023-04-29T02:53:08;57.30;;;34.20;;
5959;SDS011;3006;50.956;7.002;2023-04-29T02:55:36;56.33;;;34.93;;
5959;SDS011;3006;50.956;7.002;2023-04-29T02:58:07;58.97;;;35.00;;
5959;SDS011;3006;50.956;7.002;2023-04-29T03:00:37;67.03;;;38.80;;
5959;SDS011;3006;50.956;7.002;2023-04-29T03:03:07;66.80;;;38.50;;
5959;SDS011;3006;50.956;7.002;2023-04-29T03:05:36;63.10;;;37.40;;
5959;SDS011;3006;50.956;7.002;2023-04-29T03:08:04;66.03;;;37.57;;
5959;SDS011;3006;50.956;7.002;2023-04-29T03:10:33;72.83;;;41.03;;
5959;SDS011;3006;50.956;7.002;2023-04-29T03:13:01;71.20;;;40.67;;
5959;SDS011;3006;50.956;7.002;2023-04-29T03:15:31;63.03;;;39.43;;
5959;SDS011;3006;50.956;7.002;2023-04-29T03:18:00;72.67;;;40.90;;
5959;SDS011;3006;50.956;7.002;2023-04-29T03:20:32;72.57;;;42.40;;
5959;SDS011;3006;50.956;7.002;2023-04-29T03:23:02;79.40;;;43.47;;
5959;SDS011;3006;50.956;7.002;2023-04-29T03:25:30;76.53;;;43.67;;
5959;SDS011;3006;50.956;7.002;2023-04-29T03:27:58;77.30;;;42.83;;
5959;SDS011;3006;50.956;7.002;2023-04-29T03:30:26;76.80;;;43.67;;
5959;SDS011;3006;50.956;7.002;2023-04-29T03:32:56;78.07;;;42.47;;
5959;SDS011;3006;50.956;7.002;2023-04-29T03:35:27;81.03;;;45.30;;
5959;SDS011;3006;50.956;7.002;2023-04-29T03:38:21;80.43;;;42.70;;
5959;SDS011;3006;50.956;7.002;2023-04-29T03:40:52;87.17;;;43.87;;
5959;SDS011;3006;50.956;7.002;2023-04-29T03:43:20;82.80;;;42.80;;
5959;SDS011;3006;50.956;7.002;2023-04-29T03:45:48;86.23;;;42.77;;
5959;SDS011;3006;50.956;7.002;2023-04-29T03:48:19;82.57;;;43.77;;
5959;SDS011;3006;50.956;7.002;2023-04-29T03:50:49;88.07;;;41.73;;
5959;SDS011;3006;50.956;7.002;2023-04-29T03:53:17;82.07;;;41.27;;
5959;SDS011;3006;50.956;7.002;2023-04-29T03:55:46;85.97;;;39.70;;
5959;SDS011;3006;50.956;7.002;2023-04-29T03:58:15;84.80;;;40.90;;
5959;SDS011;3006;50.956;7.002;2023-04-29T04:00:44;81.50;;;37.97;;
5959;SDS011;3006;50.956;7.002;2023-04-29T04:03:17;76.80;;;37.47;;
5959;SDS011;3006;50.956;7.002;2023-04-29T04:05:46;70.07;;;35.33;;
5959;SDS011;3006;50.956;7.002;2023-04-29T04:08:16;72.57;;;36.50;;
5959;SDS011;3006;50.956;7.002;2023-04-29T04:10:49;74.03;;;35.27;;
5959;SDS011;3006;50.956;7.002;2023-04-29T04:13:40;75.83;;;36.07;;
5959;SDS011;3006;50.956;7.002;2023-04-29T04:16:09;75.17;;;37.43;;
5959;SDS011;3006;50.956;7.002;2023-04-29T04:18:37;76.97;;;36.07;;
5959;SDS011;3006;50.956;7.002;2023-04-29T04:21:06;74.60;;;37.40;;
5959;SDS011;3006;50.956;7.002;2023-04-29T04:23:37;74.73;;;36.80;;
5959;SDS011;3006;50.956;7.002;2023-04-29T04:26:08;72.20;;;34.37;;
5959;SDS011;3006;50.956;7.002;2023-04-29T04:28:54;64.63;;;33.23;;
5959;SDS011;3006;50.956;7.002;2023-04-29T04:31:34;61.10;;;32.10;;
5959;SDS011;3006;50.956;7.002;2023-04-29T04:34:02;60.83;;;33.67;;
5959;SDS011;3006;50.956;7.002;2023-04-29T04:36:31;56.13;;;31.07;;
5959;SDS011;3006;50.956;7.002;2023-04-29T04:39:01;69.60;;;35.03;;
5959;SDS011;3006;50.956;7.002;2023-04-29T04:41:30;56.37;;;30.77;;
5959;SDS011;3006;50.956;7.002;2023-04-29T04:43:59;61.27;;;31.97;;
5959;SDS011;3006;50.956;7.002;2023-04-29T04:46:38;62.00;;;33.70;;
5959;SDS011;3006;50.956;7.002;2023-04-29T04:49:12;62.47;;;34.10;;
5959;SDS011;3006;50.956;7.002;2023-04-29T04:51:47;63.03;;;33.93;;
5959;SDS011;3006;50.956;7.002;2023-04-29T04:54:17;62.53;;;32.90;;
5959;SDS011;3006;50.956;7.002;2023-04-29T04:56:46;66.60;;;33.47;;
5959;SDS011;3006;50.956;7.002;2023-04-29T04:59:17;63.83;;;33.37;;
5959;SDS011;3006;50.956;7.002;2023-04-29T05:01:45;59.20;;;32.07;;
5959;SDS011;3006;50.956;7.002;2023-04-29T05:04:13;57.97;;;31.90;;
5959;SDS011;3006;50.956;7.002;2023-04-29T05:06:42;58.70;;;31.80;;
5959;SDS011;3006;50.956;7.002;2023-04-29T05:09:10;66.13;;;31.23;;
5959;SDS011;3006;50.956;7.002;2023-04-29T05:11:39;48.80;;;28.70;;
5959;SDS011;3006;50.956;7.002;2023-04-29T05:14:11;57.20;;;29.67;;
5959;SDS011;3006;50.956;7.002;2023-04-29T05:16:39;51.90;;;29.90;;
5959;SDS011;3006;50.956;7.002;2023-04-29T05:19:09;47.43;;;28.17;;
5959;SDS011;3006;50.956;7.002;2023-04-29T05:21:38;48.43;;;28.30;;
5959;SDS011;3006;50.956;7.002;2023-04-29T05:24:08;47.70;;;27.83;;
5959;SDS011;3006;50.956;7.002;2023-04-29T05:26:36;44.37;;;25.23;;
5959;SDS011;3006;50.956;7.002;2023-04-29T05:29:07;42.87;;;24.60;;
5959;SDS011;3006;50.956;7.002;2023-04-29T05:31:44;41.70;;;25.10;;
5959;SDS011;3006;50.956;7.002;2023-04-29T05:34:12;43.70;;;25.40;;
5959;SDS011;3006;50.956;7.002;2023-04-29T05:36:41;42.00;;;24.70;;
5959;SDS011;3006;50.956;7.002;2023-04-29T05:39:09;41.13;;;23.47;;
5959;SDS011;3006;50.956;7.002;2023-04-29T05:41:37;43.00;;;25.57;;
5959;SDS011;3006;50.956;7.002;2023-04-29T05:44:19;37.93;;;22.70;;
5959;SDS011;3006;50.956;7.002;2023-04-29T05:46:48;41.97;;;23.70;;
5959;SDS011;3006;50.956;7.002;2023-04-29T05:49:17;41.93;;;22.20;;
5959;SDS011;3006;50.956;7.002;2023-04-29T05:51:45;37.33;;;21.80;;
5959;SDS011;3006;50.956;7.002;2023-04-29T05:54:13;35.10;;;21.83;;
5959;SDS011;3006;50.956;7.002;2023-04-29T05:56:43;34.47;;;20.70;;
5959;SDS011;3006;50.956;7.002;2023-04-29T05:59:12;33.50;;;19.83;;
5959;SDS011;3006;50.956;7.002;2023-04-29T06:01:45;31.97;;;19.57;;
5959;SDS011;3006;50.956;7.002;2023-04-29T06:04:13;34.27;;;21.07;;
5959;SDS011;3006;50.956;7.002;2023-04-29T06:07:00;29.20;;;19.37;;
5959;SDS011;3006;50.956;7.002;2023-04-29T06:09:54;32.87;;;19.70;;
5959;SDS011;3006;50.956;7.002;2023-04-29T06:12:24;30.03;;;19.57;;
5959;SDS011;3006;50.956;7.002;2023-04-29T06:14:52;28.80;;;19.60;;
5959;SDS011;3006;50.956;7.002;2023-04-29T06:17:22;31.23;;;19.20;;
5959;SDS011;3006;50.956;7.002;2023-04-29T06:19:50;31.03;;;18.67;;
5959;SDS011;3006;50.956;7.002;2023-04-29T06:22:19;27.17;;;18.67;;
5959;SDS011;3006;50.956;7.002;2023-04-29T06:24:49;29.10;;;18.90;;
5959;SDS011;3006;50.956;7.002;2023-04-29T06:27:40;31.77;;;19.03;;
5959;SDS011;3006;50.956;7.002;2023-04-29T06:30:08;29.10;;;19.93;;
5959;SDS011;3006;50.956;7.002;2023-04-29T06:32:39;28.97;;;18.57;;
5959;SDS011;3006;50.956;7.002;2023-04-29T06:35:07;30.33;;;18.63;;
5959;SDS011;3006;50.956;7.002;2023-04-29T06:37:58;32.07;;;20.27;;
5959;SDS011;3006;50.956;7.002;2023-04-29T06:40:47;28.23;;;18.63;;
5959;SDS011;3006;50.956;7.002;2023-04-29T06:43:33;31.03;;;20.10;;
5959;SDS011;3006;50.956;7.002;2023-04-29T06:46:20;29.83;;;18.70;;
5959;SDS011;3006;50.956;7.002;2023-04-29T06:49:01;28.10;;;19.27;;
5959;SDS011;3006;50.956;7.002;2023-04-29T06:51:31;30.07;;;19.90;;
5959;SDS011;3006;50.956;7.002;2023-04-29T06:53:59;30.57;;;19.13;;
5959;SDS011;3006;50.956;7.002;2023-04-29T06:56:27;31.73;;;20.43;;
5959;SDS011;3006;50.956;7.002;2023-04-29T06:58:55;29.03;;;19.00;;
5959;SDS011;3006;50.956;7.002;2023-04-29T07:01:23;29.57;;;18.87;;
5959;SDS011;3006;50.956;7.002;2023-04-29T07:03:51;31.33;;;20.87;;
5959;SDS011;3006;50.956;7.002;2023-04-29T07:06:20;28.43;;;19.30;;
5959;SDS011;3006;50.956;7.002;2023-04-29T07:08:50;27.07;;;19.90;;
5959;SDS011;3006;50.956;7.002;2023-04-29T07:11:22;30.50;;;20.47;;
5959;SDS011;3006;50.956;7.002;2023-04-29T07:13:52;28.63;;;19.70;;
5959;SDS011;3006;50.956;7.002;2023-04-29T07:16:20;30.63;;;20.33;;
5959;SDS011;3006;50.956;7.002;2023-04-29T07:18:51;28.70;;;19.23;;
5959;SDS011;3006;50.956;7.002;2023-04-29T07:21:21;26.77;;;18.87;;
5959;SDS011;3006;50.956;7.002;2023-04-29T07:23:49;29.27;;;20.50;;
5959;SDS011;3006;50.956;7.002;2023-04-29T07:26:17;32.13;;;20.80;;
5959;SDS011;3006;50.956;7.002;2023-04-29T07:28:47;29.33;;;20.87;;
5959;SDS011;3006;50.956;7.002;2023-04-29T07:31:15;27.67;;;20.37;;
5959;SDS011;3006;50.956;7.002;2023-04-29T07:33:43;29.63;;;19.87;;
5959;SDS011;3006;50.956;7.002;2023-04-29T07:36:12;33.50;;;22.57;;
5959;SDS011;3006;50.956;7.002;2023-04-29T07:38:42;29.93;;;22.47;;
5959;SDS011;3006;50.956;7.002;2023-04-29T07:41:10;32.03;;;21.80;;
5959;SDS011;3006;50.956;7.002;2023-04-29T07:43:38;28.83;;;21.23;;
5959;SDS011;3006;50.956;7.002;2023-04-29T07:46:08;31.50;;;21.87;;
5959;SDS011;3006;50.956;7.002;2023-04-29T07:48:37;31.60;;;20.70;;
5959;SDS011;3006;50.956;7.002;2023-04-29T07:51:05;28.77;;;21.50;;
5959;SDS011;3006;50.956;7.002;2023-04-29T07:53:42;30.80;;;20.70;;
5959;SDS011;3006;50.956;7.002;2023-04-29T07:56:10;32.43;;;22.67;;
5959;SDS011;3006;50.956;7.002;2023-04-29T07:58:39;36.17;;;22.17;;
5959;SDS011;3006;50.956;7.002;2023-04-29T08:01:07;30.73;;;21.50;;
5959;SDS011;3006;50.956;7.002;2023-04-29T08:03:38;28.37;;;21.53;;
5959;SDS011;3006;50.956;7.002;2023-04-29T08:06:08;32.43;;;23.33;;
5959;SDS011;3006;50.956;7.002;2023-04-29T08:08:36;28.90;;;21.20;;
5959;SDS011;3006;50.956;7.002;2023-04-29T08:11:06;36.00;;;21.73;;
5959;SDS011;3006;50.956;7.002;2023-04-29T08:13:36;30.20;;;21.97;;
5959;SDS011;3006;50.956;7.002;2023-04-29T08:16:04;45.60;;;25.27;;
5959;SDS011;3006;50.956;7.002;2023-04-29T08:18:34;37.03;;;21.33;;
5959;SDS011;3006;50.956;7.002;2023-04-29T08:21:03;29.23;;;20.43;;
5959;SDS011;3006;50.956;7.002;2023-04-29T08:23:31;29.80;;;20.23;;
5959;SDS011;3006;50.956;7.002;2023-04-29T08:25:59;28.47;;;20.47;;
5959;SDS011;3006;50.956;7.002;2023-04-29T08:28:29;26.37;;;19.93;;
5959;SDS011;3006;50.956;7.002;2023-04-29T08:30:57;32.07;;;19.27;;
5959;SDS011;3006;50.956;7.002;2023-04-29T08:33:25;30.30;;;19.07;;
5959;SDS011;3006;50.956;7.002;2023-04-29T08:35:56;32.83;;;21.03;;
5959;SDS011;3006;50.956;7.002;2023-04-29T08:38:28;31.93;;;19.90;;
5959;SDS011;3006;50.956;7.002;2023-04-29T08:40:57;30.57;;;20.17;;
5959;SDS011;3006;50.956;7.002;2023-04-29T08:43:25;28.27;;;18.93;;
5959;SDS011;3006;50.956;7.002;2023-04-29T08:45:55;35.33;;;21.87;;
5959;SDS011;3006;50.956;7.002;2023-04-29T08:48:24;28.47;;;20.00;;
5959;SDS011;3006;50.956;7.002;2023-04-29T08:50:54;26.77;;;19.83;;
5959;SDS011;3006;50.956;7.002;2023-04-29T08:53:23;25.77;;;18.57;;
5959;SDS011;3006;50.956;7.002;2023-04-29T08:55:51;25.30;;;19.00;;
5959;SDS011;3006;50.956;7.002;2023-04-29T08:58:21;26.53;;;17.97;;
5959;SDS011;3006;50.956;7.002;2023-04-29T09:00:51;25.43;;;17.20;;
5959;SDS011;3006;50.956;7.002;2023-04-29T09:03:24;25.50;;;19.30;;
5959;SDS011;3006;50.956;7.002;2023-04-29T09:05:58;28.30;;;18.80;;
5959;SDS011;3006;50.956;7.002;2023-04-29T09:08:27;24.07;;;17.47;;
5959;SDS011;3006;50.956;7.002;2023-04-29T09:10:56;24.33;;;16.40;;
5959;SDS011;3006;50.956;7.002;2023-04-29T09:13:26;23.83;;;17.27;;
5959;SDS011;3006;50.956;7.002;2023-04-29T09:15:55;23.47;;;16.73;;
5959;SDS011;3006;50.956;7.002;2023-04-29T09:18:43;27.90;;;18.77;;
5959;SDS011;3006;50.956;7.002;2023-04-29T09:21:13;29.07;;;19.63;;
5959;SDS011;3006;50.956;7.002;2023-04-29T09:23:47;26.27;;;17.77;;
5959;SDS011;3006;50.956;7.002;2023-04-29T09:26:16;23.50;;;17.40;;
5959;SDS011;3006;50.956;7.002;2023-04-29T09:28:44;27.83;;;19.00;;
5959;SDS011;3006;50.956;7.002;2023-04-29T09:31:13;23.60;;;18.00;;
5959;SDS011;3006;50.956;7.002;2023-04-29T09:33:52;24.87;;;18.40;;
5959;SDS011;3006;50.956;7.002;2023-04-29T09:36:36;28.47;;;19.77;;
5959;SDS011;3006;50.956;7.002;2023-04-29T09:39:11;30.53;;;22.07;;
5959;SDS011;3006;50.956;7.002;2023-04-29T09:41:41;33.63;;;22.40;;
5959;SDS011;3006;50.956;7.002;2023-04-29T09:44:24;32.17;;;23.27;;
5959;SDS011;3006;50.956;7.002;2023-04-29T09:46:57;37.23;;;27.17;;
5959;SDS011;3006;50.956;7.002;2023-04-29T09:49:29;43.67;;;31.00;;
5959;SDS011;3006;50.956;7.002;2023-04-29T09:52:01;47.03;;;29.57;;
5959;SDS011;3006;50.956;7.002;2023-04-29T09:54:31;38.57;;;26.13;;
5959;SDS011;3006;50.956;7.002;2023-04-29T09:57:01;34.37;;;26.57;;
5959;SDS011;3006;50.956;7.002;2023-04-29T09:59:32;37.10;;;25.50;;
5959;SDS011;3006;50.956;7.002;2023-04-29T10:02:01;31.27;;;24.30;;
5959;SDS011;3006;50.956;7.002;2023-04-29T10:04:36;98.67;;;72.63;;
5959;SDS011;3006;50.956;7.002;2023-04-29T10:07:08;47.40;;;34.10;;
5959;SDS011;3006;50.956;7.002;2023-04-29T10:09:40;40.33;;;28.90;;
5959;SDS011;3006;50.956;7.002;2023-04-29T10:12:08;51.77;;;37.10;;
5959;SDS011;3006;50.956;7.002;2023-04-29T10:14:37;48.37;;;35.47;;
5959;SDS011;3006;50.956;7.002;2023-04-29T10:17:10;52.07;;;34.50;;
5959;SDS011;3006;50.956;7.002;2023-04-29T10:19:45;45.73;;;30.17;;
5959;SDS011;3006;50.956;7.002;2023-04-29T10:22:18;43.23;;;29.00;;
5959;SDS011;3006;50.956;7.002;2023-04-29T10:24:53;38.50;;;28.13;;
5959;SDS011;3006;50.956;7.002;2023-04-29T10:27:24;37.47;;;26.53;;
5959;SDS011;3006;50.956;7.002;2023-04-29T10:29:53;34.40;;;25.90;;
5959;SDS011;3006;50.956;7.002;2023-04-29T10:32:23;39.40;;;25.90;;
5959;SDS011;3006;50.956;7.002;2023-04-29T10:35:01;40.97;;;27.27;;
5959;SDS011;3006;50.956;7.002;2023-04-29T10:37:31;39.37;;;28.47;;
5959;SDS011;3006;50.956;7.002;2023-04-29T10:40:00;38.00;;;27.90;;
5959;SDS011;3006;50.956;7.002;2023-04-29T10:42:42;40.00;;;28.07;;
5959;SDS011;3006;50.956;7.002;2023-04-29T10:45:19;42.40;;;29.60;;
5959;SDS011;3006;50.956;7.002;2023-04-29T10:50:40;48.83;;;31.80;;
5959;SDS011;3006;50.956;7.002;2023-04-29T10:53:28;50.07;;;32.60;;
5959;SDS011;3006;50.956;7.002;2023-04-29T10:55:57;53.10;;;37.47;;
5959;SDS011;3006;50.956;7.002;2023-04-29T10:58:33;60.23;;;41.40;;
5959;SDS011;3006;50.956;7.002;2023-04-29T11:01:09;72.70;;;48.60;;
5959;SDS011;3006;50.956;7.002;2023-04-29T11:03:45;77.23;;;49.30;;
5959;SDS011;3006;50.956;7.002;2023-04-29T11:06:17;78.20;;;50.40;;
5959;SDS011;3006;50.956;7.002;2023-04-29T11:08:45;81.67;;;49.93;;
5959;SDS011;3006;50.956;7.002;2023-04-29T11:11:13;81.87;;;51.00;;
5959;SDS011;3006;50.956;7.002;2023-04-29T11:13:42;86.47;;;48.90;;
5959;SDS011;3006;50.956;7.002;2023-04-29T11:16:13;84.17;;;50.00;;
5959;SDS011;3006;50.956;7.002;2023-04-29T11:21:34;106.67;;;65.43;;
5959;SDS011;3006;50.956;7.002;2023-04-29T11:24:03;100.60;;;63.40;;
5959;SDS011;3006;50.956;7.002;2023-04-29T11:26:33;102.87;;;60.63;;
5959;SDS011;3006;50.956;7.002;2023-04-29T11:29:01;99.60;;;60.90;;
5959;SDS011;3006;50.956;7.002;2023-04-29T11:31:31;91.20;;;57.07;;
5959;SDS011;3006;50.956;7.002;2023-04-29T11:33:59;96.53;;;57.30;;
5959;SDS011;3006;50.956;7.002;2023-04-29T11:36:28;95.73;;;59.77;;
5959;SDS011;3006;50.956;7.002;2023-04-29T11:39:00;98.33;;;57.60;;
5959;SDS011;3006;50.956;7.002;2023-04-29T11:41:30;94.20;;;56.73;;
5959;SDS011;3006;50.956;7.002;2023-04-29T11:43:58;93.83;;;56.97;;
5959;SDS011;3006;50.956;7.002;2023-04-29T11:46:29;84.10;;;52.00;;
5959;SDS011;3006;50.956;7.002;2023-04-29T11:48:58;82.50;;;50.53;;
5959;SDS011;3006;50.956;7.002;2023-04-29T11:51:26;74.93;;;47.53;;
5959;SDS011;3006;50.956;7.002;2023-04-29T11:53:55;70.53;;;46.20;;
5959;SDS011;3006;50.956;7.002;2023-04-29T11:56:25;80.47;;;48.33;;
5959;SDS011;3006;50.956;7.002;2023-04-29T11:58:53;83.33;;;48.50;;
5959;SDS011;3006;50.956;7.002;2023-04-29T12:01:22;79.60;;;49.50;;
5959;SDS011;3006;50.956;7.002;2023-04-29T12:03:56;78.43;;;49.30;;
5959;SDS011;3006;50.956;7.002;2023-04-29T12:06:27;81.53;;;51.30;;
5959;SDS011;3006;50.956;7.002;2023-04-29T12:08:57;73.33;;;48.37;;
5959;SDS011;3006;50.956;7.002;2023-04-29T12:11:28;71.17;;;48.33;;
5959;SDS011;3006;50.956;7.002;2023-04-29T12:13:56;83.63;;;50.63;;
5959;SDS011;3006;50.956;7.002;2023-04-29T12:16:27;83.10;;;50.10;;
5959;SDS011;3006;50.956;7.002;2023-04-29T12:18:56;83.03;;;50.83;;
5959;SDS011;3006;50.956;7.002;2023-04-29T12:21:26;71.50;;;46.03;;
5959;SDS011;3006;50.956;7.002;2023-04-29T12:23:57;74.27;;;45.57;;
5959;SDS011;3006;50.956;7.002;2023-04-29T12:26:27;64.20;;;40.50;;
5959;SDS011;3006;50.956;7.002;2023-04-29T12:28:57;53.97;;;38.83;;
5959;SDS011;3006;50.956;7.002;2023-04-29T12:31:31;58.97;;;37.50;;
5959;SDS011;3006;50.956;7.002;2023-04-29T12:34:01;56.37;;;37.93;;
5959;SDS011;3006;50.956;7.002;2023-04-29T12:36:33;54.90;;;36.10;;
5959;SDS011;3006;50.956;7.002;2023-04-29T12:39:04;57.37;;;36.20;;
5959;SDS011;3006;50.956;7.002;2023-04-29T12:41:36;53.07;;;31.57;;
5959;SDS011;3006;50.956;7.002;2023-04-29T12:44:07;50.17;;;30.90;;
5959;SDS011;3006;50.956;7.002;2023-04-29T12:46:37;44.60;;;31.17;;
5959;SDS011;3006;50.956;7.002;2023-04-29T12:49:06;46.50;;;29.93;;
5959;SDS011;3006;50.956;7.002;2023-04-29T12:51:34;53.70;;;34.00;;
5959;SDS011;3006;50.956;7.002;2023-04-29T12:54:03;49.80;;;31.90;;
5959;SDS011;3006;50.956;7.002;2023-04-29T12:56:32;47.77;;;31.13;;
5959;SDS011;3006;50.956;7.002;2023-04-29T12:59:05;49.40;;;32.60;;
5959;SDS011;3006;50.956;7.002;2023-04-29T13:01:33;56.43;;;32.47;;
5959;SDS011;3006;50.956;7.002;2023-04-29T13:04:02;49.00;;;31.40;;
5959;SDS011;3006;50.956;7.002;2023-04-29T13:06:32;50.70;;;31.70;;
5959;SDS011;3006;50.956;7.002;2023-04-29T13:09:00;45.20;;;31.50;;
5959;SDS011;3006;50.956;7.002;2023-04-29T13:11:28;47.60;;;31.97;;
5959;SDS011;3006;50.956;7.002;2023-04-29T13:14:00;44.30;;;31.20;;
5959;SDS011;3006;50.956;7.002;2023-04-29T13:16:29;49.13;;;29.50;;
5959;SDS011;3006;50.956;7.002;2023-04-29T13:18:57;47.77;;;32.17;;
5959;SDS011;3006;50.956;7.002;2023-04-29T13:21:45;46.90;;;32.27;;
5959;SDS011;3006;50.956;7.002;2023-04-29T13:24:13;50.13;;;32.33;;
5959;SDS011;3006;50.956;7.002;2023-04-29T13:26:43;47.27;;;29.73;;
5959;SDS011;3006;50.956;7.002;2023-04-29T13:29:12;44.20;;;27.83;;
5959;SDS011;3006;50.956;7.002;2023-04-29T13:31:41;42.80;;;29.67;;
5959;SDS011;3006;50.956;7.002;2023-04-29T13:34:10;43.20;;;28.67;;
5959;SDS011;3006;50.956;7.002;2023-04-29T13:36:38;45.70;;;30.00;;
5959;SDS011;3006;50.956;7.002;2023-04-29T13:39:06;43.40;;;30.27;;
5959;SDS011;3006;50.956;7.002;2023-04-29T13:41:35;44.30;;;28.40;;
5959;SDS011;3006;50.956;7.002;2023-04-29T13:44:09;40.83;;;29.90;;
5959;SDS011;3006;50.956;7.002;2023-04-29T13:46:55;40.80;;;27.90;;
5959;SDS011;3006;50.956;7.002;2023-04-29T13:49:23;43.57;;;29.87;;
5959;SDS011;3006;50.956;7.002;2023-04-29T13:51:55;46.17;;;30.17;;
5959;SDS011;3006;50.956;7.002;2023-04-29T13:54:26;38.57;;;29.73;;
5959;SDS011;3006;50.956;7.002;2023-04-29T13:57:14;47.77;;;29.90;;
5959;SDS011;3006;50.956;7.002;2023-04-29T14:00:02;46.27;;;27.10;;
5959;SDS011;3006;50.956;7.002;2023-04-29T14:02:53;37.50;;;27.23;;
5959;SDS011;3006;50.956;7.002;2023-04-29T14:05:24;37.57;;;28.10;;
5959;SDS011;3006;50.956;7.002;2023-04-29T14:07:52;43.07;;;29.67;;
5959;SDS011;3006;50.956;7.002;2023-04-29T14:10:20;35.47;;;25.03;;
5959;SDS011;3006;50.956;7.002;2023-04-29T14:12:48;35.53;;;26.03;;
5959;SDS011;3006;50.956;7.002;2023-04-29T14:15:16;40.43;;;27.47;;
5959;SDS011;3006;50.956;7.002;2023-04-29T14:17:44;38.90;;;29.30;;
5959;SDS011;3006;50.956;7.002;2023-04-29T14:20:14;45.10;;;31.37;;
5959;SDS011;3006;50.956;7.002;2023-04-29T14:22:42;44.60;;;29.83;;
5959;SDS011;3006;50.956;7.002;2023-04-29T14:25:10;42.00;;;26.67;;
5959;SDS011;3006;50.956;7.002;2023-04-29T14:27:38;34.13;;;26.77;;
5959;SDS011;3006;50.956;7.002;2023-04-29T14:30:07;37.60;;;26.30;;
5959;SDS011;3006;50.956;7.002;2023-04-29T14:32:36;38.07;;;24.93;;
5959;SDS011;3006;50.956;7.002;2023-04-29T14:35:04;38.77;;;26.13;;
5959;SDS011;3006;50.956;7.002;2023-04-29T14:37:34;40.33;;;25.67;;
5959;SDS011;3006;50.956;7.002;2023-04-29T14:40:02;33.80;;;23.70;;
5959;SDS011;3006;50.956;7.002;2023-04-29T14:42:31;34.80;;;25.00;;
5959;SDS011;3006;50.956;7.002;2023-04-29T14:44:59;33.70;;;25.13;;
5959;SDS011;3006;50.956;7.002;2023-04-29T14:47:27;32.37;;;23.80;;
5959;SDS011;3006;50.956;7.002;2023-04-29T14:49:55;27.10;;;20.07;;
5959;SDS011;3006;50.956;7.002;2023-04-29T14:52:23;29.00;;;22.13;;
5959;SDS011;3006;50.956;7.002;2023-04-29T14:54:53;61.13;;;47.00;;
5959;SDS011;3006;50.956;7.002;2023-04-29T14:57:21;31.60;;;24.30;;
5959;SDS011;3006;50.956;7.002;2023-04-29T14:59:49;38.57;;;29.57;;
5959;SDS011;3006;50.956;7.002;2023-04-29T15:02:17;32.80;;;23.87;;
5959;SDS011;3006;50.956;7.002;2023-04-29T15:04:45;30.63;;;23.77;;
5959;SDS011;3006;50.956;7.002;2023-04-29T15:07:14;37.43;;;23.07;;
5959;SDS011;3006;50.956;7.002;2023-04-29T15:09:42;31.43;;;24.90;;
5959;SDS011;3006;50.956;7.002;2023-04-29T15:12:12;32.53;;;24.20;;
5959;SDS011;3006;50.956;7.002;2023-04-29T15:14:42;29.73;;;21.57;;
5959;SDS011;3006;50.956;7.002;2023-04-29T15:17:10;99.67;;;71.60;;